sensor_id;sensor_type;location;lat;lon;timestamp;P1;durP1;ratioP1;P2;durP2;ratioP2
10311;SDS011;5201;48.776;9.128;2022-08-25T00:01:24;2.78;;;1.05;;
10311;SDS011;5201;48.776;9.128;2022-08-25T00:03:55;2.95;;;1.10;;
10311;SDS011;5201;48.776;9.128;2022-08-25T00:06:22;2.17;;;1.13;;
10311;SDS011;5201;48.776;9.128;2022-08-25T00:08:48;1.20;;;1.08;;
10311;SDS011;5201;48.776;9.128;2022-08-25T00:11:15;1.15;;;1.05;;
10311;SDS011;5201;48.776;9.128;2022-08-25T00:13:46;1.08;;;0.98;;
10311;SDS011;5201;48.776;9.128;2022-08-25T00:16:15;1.10;;;1.00;;
10311;SDS011;5201;48.776;9.128;2022-08-25T00:18:42;1.50;;;1.20;;
10311;SDS011;5201;48.776;9.128;2022-08-25T00:21:10;1.60;;;1.00;;
10311;SDS011;5201;48.776;9.128;2022-08-25T00:23:37;1.05;;;0.90;;
10311;SDS011;5201;48.776;9.128;2022-08-25T00:26:03;1.48;;;1.27;;
10311;SDS011;5201;48.776;9.128;2022-08-25T00:28:28;2.65;;;0.98;;
10311;SDS011;5201;48.776;9.128;2022-08-25T00:30:55;1.17;;;1.08;;
10311;SDS011;5201;48.776;9.128;2022-08-25T00:33:21;2.35;;;1.10;;
10311;SDS011;5201;48.776;9.128;2022-08-25T00:35:46;1.60;;;1.00;;
10311;SDS011;5201;48.776;9.128;2022-08-25T00:38:12;1.30;;;1.20;;
10311;SDS011;5201;48.776;9.128;2022-08-25T00:40:38;1.55;;;1.20;;
10311;SDS011;5201;48.776;9.128;2022-08-25T00:43:05;1.40;;;1.30;;
10311;SDS011;5201;48.776;9.128;2022-08-25T00:45:31;1.17;;;1.05;;
10311;SDS011;5201;48.776;9.128;2022-08-25T00:47:58;1.38;;;1.27;;
10311;SDS011;5201;48.776;9.128;2022-08-25T00:50:25;2.10;;;1.10;;
10311;SDS011;5201;48.776;9.128;2022-08-25T00:52:53;1.35;;;1.20;;
10311;SDS011;5201;48.776;9.128;2022-08-25T00:55:27;1.50;;;0.98;;
10311;SDS011;5201;48.776;9.128;2022-08-25T00:58:04;1.33;;;1.23;;
10311;SDS011;5201;48.776;9.128;2022-08-25T01:00:40;1.50;;;1.33;;
10311;SDS011;5201;48.776;9.128;2022-08-25T01:03:08;1.00;;;0.90;;
10311;SDS011;5201;48.776;9.128;2022-08-25T01:05:34;1.35;;;1.23;;
10311;SDS011;5201;48.776;9.128;2022-08-25T01:08:01;1.77;;;1.30;;
10311;SDS011;5201;48.776;9.128;2022-08-25T01:10:28;5.07;;;1.50;;
10311;SDS011;5201;48.776;9.128;2022-08-25T01:12:57;1.27;;;1.17;;
10311;SDS011;5201;48.776;9.128;2022-08-25T01:15:26;1.90;;;1.63;;
10311;SDS011;5201;48.776;9.128;2022-08-25T01:17:53;1.73;;;1.23;;
10311;SDS011;5201;48.776;9.128;2022-08-25T01:20:23;1.33;;;1.23;;
10311;SDS011;5201;48.776;9.128;2022-08-25T01:22:51;2.00;;;1.38;;
10311;SDS011;5201;48.776;9.128;2022-08-25T01:28:00;2.63;;;1.38;;
10311;SDS011;5201;48.776;9.128;2022-08-25T01:30:26;1.50;;;1.40;;
10311;SDS011;5201;48.776;9.128;2022-08-25T01:32:52;3.05;;;1.50;;
10311;SDS011;5201;48.776;9.128;2022-08-25T01:35:18;1.52;;;1.17;;
10311;SDS011;5201;48.776;9.128;2022-08-25T01:37:43;3.17;;;1.30;;
10311;SDS011;5201;48.776;9.128;2022-08-25T01:40:09;1.35;;;1.13;;
10311;SDS011;5201;48.776;9.128;2022-08-25T01:45:39;1.38;;;1.27;;
10311;SDS011;5201;48.776;9.128;2022-08-25T01:48:09;1.55;;;1.30;;
10311;SDS011;5201;48.776;9.128;2022-08-25T01:50:36;1.40;;;1.20;;
10311;SDS011;5201;48.776;9.128;2022-08-25T01:53:06;1.67;;;1.55;;
10311;SDS011;5201;48.776;9.128;2022-08-25T01:55:37;2.80;;;1.25;;
10311;SDS011;5201;48.776;9.128;2022-08-25T01:58:29;1.85;;;1.42;;
10311;SDS011;5201;48.776;9.128;2022-08-25T02:00:59;1.48;;;1.38;;
10311;SDS011;5201;48.776;9.128;2022-08-25T02:03:29;2.70;;;1.17;;
10311;SDS011;5201;48.776;9.128;2022-08-25T02:05:55;1.92;;;1.70;;
10311;SDS011;5201;48.776;9.128;2022-08-25T02:08:22;1.63;;;1.52;;
10311;SDS011;5201;48.776;9.128;2022-08-25T02:10:49;2.38;;;1.30;;
10311;SDS011;5201;48.776;9.128;2022-08-25T02:13:16;1.92;;;1.48;;
10311;SDS011;5201;48.776;9.128;2022-08-25T02:15:43;1.60;;;1.50;;
10311;SDS011;5201;48.776;9.128;2022-08-25T02:18:13;2.78;;;1.48;;
10311;SDS011;5201;48.776;9.128;2022-08-25T02:20:38;2.88;;;1.80;;
10311;SDS011;5201;48.776;9.128;2022-08-25T02:23:04;2.15;;;1.67;;
10311;SDS011;5201;48.776;9.128;2022-08-25T02:25:30;2.95;;;1.77;;
10311;SDS011;5201;48.776;9.128;2022-08-25T02:27:56;1.50;;;1.40;;
10311;SDS011;5201;48.776;9.128;2022-08-25T02:30:22;2.05;;;1.38;;
10311;SDS011;5201;48.776;9.128;2022-08-25T02:32:48;1.65;;;1.45;;
10311;SDS011;5201;48.776;9.128;2022-08-25T02:35:14;2.85;;;1.27;;
10311;SDS011;5201;48.776;9.128;2022-08-25T02:37:40;1.70;;;1.60;;
10311;SDS011;5201;48.776;9.128;2022-08-25T02:40:06;3.88;;;1.70;;
10311;SDS011;5201;48.776;9.128;2022-08-25T02:42:33;4.10;;;1.52;;
10311;SDS011;5201;48.776;9.128;2022-08-25T02:44:58;1.65;;;1.30;;
10311;SDS011;5201;48.776;9.128;2022-08-25T02:47:24;1.98;;;1.42;;
10311;SDS011;5201;48.776;9.128;2022-08-25T02:49:50;1.75;;;1.40;;
10311;SDS011;5201;48.776;9.128;2022-08-25T02:52:15;1.65;;;1.50;;
10311;SDS011;5201;48.776;9.128;2022-08-25T02:54:41;1.80;;;1.45;;
10311;SDS011;5201;48.776;9.128;2022-08-25T02:57:07;2.15;;;1.40;;
10311;SDS011;5201;48.776;9.128;2022-08-25T02:59:35;3.43;;;1.70;;
10311;SDS011;5201;48.776;9.128;2022-08-25T03:02:01;1.70;;;1.60;;
10311;SDS011;5201;48.776;9.128;2022-08-25T03:04:27;1.55;;;1.45;;
10311;SDS011;5201;48.776;9.128;2022-08-25T03:06:53;2.40;;;1.57;;
10311;SDS011;5201;48.776;9.128;2022-08-25T03:09:19;1.75;;;1.35;;
10311;SDS011;5201;48.776;9.128;2022-08-25T03:11:45;2.10;;;1.50;;
10311;SDS011;5201;48.776;9.128;2022-08-25T03:14:11;1.33;;;1.20;;
10311;SDS011;5201;48.776;9.128;2022-08-25T03:16:37;1.60;;;1.40;;
10311;SDS011;5201;48.776;9.128;2022-08-25T03:19:02;3.90;;;1.70;;
10311;SDS011;5201;48.776;9.128;2022-08-25T03:21:29;1.65;;;1.52;;
10311;SDS011;5201;48.776;9.128;2022-08-25T03:23:56;2.77;;;1.40;;
10311;SDS011;5201;48.776;9.128;2022-08-25T03:26:22;1.80;;;1.50;;
10311;SDS011;5201;48.776;9.128;2022-08-25T03:29:07;2.70;;;1.73;;
10311;SDS011;5201;48.776;9.128;2022-08-25T03:31:34;1.70;;;1.60;;
10311;SDS011;5201;48.776;9.128;2022-08-25T03:34:00;1.60;;;1.50;;
10311;SDS011;5201;48.776;9.128;2022-08-25T03:36:27;2.20;;;1.67;;
10311;SDS011;5201;48.776;9.128;2022-08-25T03:38:53;2.40;;;1.80;;
10311;SDS011;5201;48.776;9.128;2022-08-25T03:41:20;1.80;;;1.70;;
10311;SDS011;5201;48.776;9.128;2022-08-25T03:43:48;3.43;;;1.93;;
10311;SDS011;5201;48.776;9.128;2022-08-25T03:46:48;3.30;;;1.80;;
10311;SDS011;5201;48.776;9.128;2022-08-25T03:49:09;3.07;;;1.80;;
10311;SDS011;5201;48.776;9.128;2022-08-25T03:51:39;2.23;;;1.77;;
10311;SDS011;5201;48.776;9.128;2022-08-25T03:54:11;2.33;;;2.00;;
10311;SDS011;5201;48.776;9.128;2022-08-25T03:56:37;2.13;;;1.93;;
10311;SDS011;5201;48.776;9.128;2022-08-25T03:59:03;2.27;;;1.80;;
10311;SDS011;5201;48.776;9.128;2022-08-25T04:01:30;2.83;;;2.20;;
10311;SDS011;5201;48.776;9.128;2022-08-25T04:03:55;2.50;;;2.00;;
10311;SDS011;5201;48.776;9.128;2022-08-25T04:06:21;2.47;;;1.90;;
10311;SDS011;5201;48.776;9.128;2022-08-25T04:08:47;2.67;;;1.90;;
10311;SDS011;5201;48.776;9.128;2022-08-25T04:11:14;3.80;;;1.87;;
10311;SDS011;5201;48.776;9.128;2022-08-25T04:13:41;2.00;;;1.80;;
10311;SDS011;5201;48.776;9.128;2022-08-25T04:16:10;5.17;;;1.70;;
10311;SDS011;5201;48.776;9.128;2022-08-25T04:18:37;4.07;;;2.03;;
10311;SDS011;5201;48.776;9.128;2022-08-25T04:21:04;2.13;;;1.80;;
10311;SDS011;5201;48.776;9.128;2022-08-25T04:23:33;3.87;;;2.33;;
10311;SDS011;5201;48.776;9.128;2022-08-25T04:25:59;2.40;;;2.20;;
10311;SDS011;5201;48.776;9.128;2022-08-25T04:28:25;2.10;;;1.90;;
10311;SDS011;5201;48.776;9.128;2022-08-25T04:30:51;4.47;;;2.20;;
10311;SDS011;5201;48.776;9.128;2022-08-25T04:33:17;3.10;;;2.20;;
10311;SDS011;5201;48.776;9.128;2022-08-25T04:35:47;3.73;;;2.10;;
10311;SDS011;5201;48.776;9.128;2022-08-25T04:38:14;3.23;;;2.13;;
10311;SDS011;5201;48.776;9.128;2022-08-25T04:40:39;2.30;;;1.80;;
10311;SDS011;5201;48.776;9.128;2022-08-25T04:43:05;2.40;;;1.93;;
10311;SDS011;5201;48.776;9.128;2022-08-25T04:45:31;2.53;;;2.00;;
10311;SDS011;5201;48.776;9.128;2022-08-25T04:48:01;2.30;;;2.10;;
10311;SDS011;5201;48.776;9.128;2022-08-25T04:50:27;2.93;;;2.27;;
10311;SDS011;5201;48.776;9.128;2022-08-25T04:52:53;4.20;;;2.00;;
10311;SDS011;5201;48.776;9.128;2022-08-25T04:55:19;2.03;;;1.80;;
10311;SDS011;5201;48.776;9.128;2022-08-25T04:57:44;2.63;;;2.20;;
10311;SDS011;5201;48.776;9.128;2022-08-25T05:00:10;2.67;;;2.20;;
10311;SDS011;5201;48.776;9.128;2022-08-25T05:02:36;2.37;;;2.17;;
10311;SDS011;5201;48.776;9.128;2022-08-25T05:05:02;3.80;;;2.33;;
10311;SDS011;5201;48.776;9.128;2022-08-25T05:07:28;3.47;;;2.17;;
10311;SDS011;5201;48.776;9.128;2022-08-25T05:09:54;2.87;;;2.50;;
10311;SDS011;5201;48.776;9.128;2022-08-25T05:12:19;3.00;;;2.30;;
10311;SDS011;5201;48.776;9.128;2022-08-25T05:14:45;3.77;;;2.70;;
10311;SDS011;5201;48.776;9.128;2022-08-25T05:17:11;7.57;;;2.50;;
10311;SDS011;5201;48.776;9.128;2022-08-25T05:19:36;2.83;;;2.33;;
10311;SDS011;5201;48.776;9.128;2022-08-25T05:22:02;4.67;;;2.83;;
10311;SDS011;5201;48.776;9.128;2022-08-25T05:24:27;3.07;;;2.50;;
10311;SDS011;5201;48.776;9.128;2022-08-25T05:26:53;3.67;;;2.63;;
10311;SDS011;5201;48.776;9.128;2022-08-25T05:29:20;3.03;;;2.30;;
10311;SDS011;5201;48.776;9.128;2022-08-25T05:31:45;3.57;;;2.97;;
10311;SDS011;5201;48.776;9.128;2022-08-25T05:34:11;4.00;;;2.53;;
10311;SDS011;5201;48.776;9.128;2022-08-25T05:36:37;3.47;;;2.57;;
10311;SDS011;5201;48.776;9.128;2022-08-25T05:39:07;8.83;;;2.83;;
10311;SDS011;5201;48.776;9.128;2022-08-25T05:41:32;3.57;;;2.90;;
10311;SDS011;5201;48.776;9.128;2022-08-25T05:43:58;4.60;;;2.70;;
10311;SDS011;5201;48.776;9.128;2022-08-25T05:46:24;4.67;;;3.20;;
10311;SDS011;5201;48.776;9.128;2022-08-25T05:48:50;3.00;;;2.50;;
10311;SDS011;5201;48.776;9.128;2022-08-25T05:51:17;4.43;;;3.00;;
10311;SDS011;5201;48.776;9.128;2022-08-25T05:53:44;3.10;;;2.73;;
10311;SDS011;5201;48.776;9.128;2022-08-25T05:56:12;4.30;;;2.20;;
10311;SDS011;5201;48.776;9.128;2022-08-25T05:58:39;3.00;;;2.47;;
10311;SDS011;5201;48.776;9.128;2022-08-25T06:01:05;3.23;;;2.60;;
10311;SDS011;5201;48.776;9.128;2022-08-25T06:03:50;3.00;;;2.70;;
10311;SDS011;5201;48.776;9.128;2022-08-25T06:06:18;3.93;;;2.53;;
10311;SDS011;5201;48.776;9.128;2022-08-25T06:08:45;3.40;;;2.73;;
10311;SDS011;5201;48.776;9.128;2022-08-25T06:11:11;3.90;;;2.57;;
10311;SDS011;5201;48.776;9.128;2022-08-25T06:13:38;5.80;;;2.93;;
10311;SDS011;5201;48.776;9.128;2022-08-25T06:16:04;3.58;;;2.22;;
10311;SDS011;5201;48.776;9.128;2022-08-25T06:18:30;5.10;;;2.90;;
10311;SDS011;5201;48.776;9.128;2022-08-25T06:20:56;3.80;;;2.67;;
10311;SDS011;5201;48.776;9.128;2022-08-25T06:23:21;4.22;;;2.63;;
10311;SDS011;5201;48.776;9.128;2022-08-25T06:25:48;3.92;;;3.10;;
10311;SDS011;5201;48.776;9.128;2022-08-25T06:28:14;3.55;;;2.63;;
10311;SDS011;5201;48.776;9.128;2022-08-25T06:30:40;5.57;;;2.65;;
10311;SDS011;5201;48.776;9.128;2022-08-25T06:33:05;4.60;;;3.10;;
10311;SDS011;5201;48.776;9.128;2022-08-25T06:35:31;4.13;;;2.70;;
10311;SDS011;5201;48.776;9.128;2022-08-25T06:37:57;4.65;;;3.10;;
10311;SDS011;5201;48.776;9.128;2022-08-25T06:40:22;3.50;;;2.75;;
10311;SDS011;5201;48.776;9.128;2022-08-25T06:42:49;5.07;;;2.75;;
10311;SDS011;5201;48.776;9.128;2022-08-25T06:45:15;4.57;;;2.85;;
10311;SDS011;5201;48.776;9.128;2022-08-25T06:47:41;4.80;;;2.58;;
10311;SDS011;5201;48.776;9.128;2022-08-25T06:50:07;3.40;;;3.08;;
10311;SDS011;5201;48.776;9.128;2022-08-25T06:52:33;2.60;;;2.20;;
10311;SDS011;5201;48.776;9.128;2022-08-25T06:54:59;4.65;;;3.40;;
10311;SDS011;5201;48.776;9.128;2022-08-25T06:57:25;3.90;;;2.88;;
10311;SDS011;5201;48.776;9.128;2022-08-25T06:59:51;4.57;;;3.15;;
10311;SDS011;5201;48.776;9.128;2022-08-25T07:02:16;6.32;;;2.67;;
10311;SDS011;5201;48.776;9.128;2022-08-25T07:04:42;5.20;;;2.97;;
10311;SDS011;5201;48.776;9.128;2022-08-25T07:07:07;6.03;;;2.35;;
10311;SDS011;5201;48.776;9.128;2022-08-25T07:09:33;4.65;;;2.90;;
10311;SDS011;5201;48.776;9.128;2022-08-25T07:11:59;5.40;;;3.13;;
10311;SDS011;5201;48.776;9.128;2022-08-25T07:14:26;2.85;;;2.40;;
10311;SDS011;5201;48.776;9.128;2022-08-25T07:16:52;5.15;;;3.15;;
10311;SDS011;5201;48.776;9.128;2022-08-25T07:19:18;3.83;;;2.88;;
10311;SDS011;5201;48.776;9.128;2022-08-25T07:21:44;5.20;;;2.90;;
10311;SDS011;5201;48.776;9.128;2022-08-25T07:24:13;5.25;;;3.78;;
10311;SDS011;5201;48.776;9.128;2022-08-25T07:26:39;6.18;;;3.58;;
10311;SDS011;5201;48.776;9.128;2022-08-25T07:29:07;2.58;;;2.38;;
10311;SDS011;5201;48.776;9.128;2022-08-25T07:31:38;3.45;;;2.88;;
10311;SDS011;5201;48.776;9.128;2022-08-25T07:34:05;3.90;;;2.90;;
10311;SDS011;5201;48.776;9.128;2022-08-25T07:36:50;4.43;;;3.40;;
10311;SDS011;5201;48.776;9.128;2022-08-25T07:39:15;4.55;;;3.60;;
10311;SDS011;5201;48.776;9.128;2022-08-25T07:41:42;8.63;;;2.90;;
10311;SDS011;5201;48.776;9.128;2022-08-25T07:44:08;5.65;;;2.78;;
10311;SDS011;5201;48.776;9.128;2022-08-25T07:46:35;4.45;;;3.08;;
10311;SDS011;5201;48.776;9.128;2022-08-25T07:49:01;6.40;;;3.05;;
10311;SDS011;5201;48.776;9.128;2022-08-25T07:51:27;4.88;;;3.05;;
10311;SDS011;5201;48.776;9.128;2022-08-25T07:53:53;4.07;;;2.95;;
10311;SDS011;5201;48.776;9.128;2022-08-25T07:56:18;4.55;;;3.13;;
10311;SDS011;5201;48.776;9.128;2022-08-25T07:58:45;5.72;;;2.90;;
10311;SDS011;5201;48.776;9.128;2022-08-25T08:01:13;6.20;;;2.83;;
10311;SDS011;5201;48.776;9.128;2022-08-25T08:03:39;4.47;;;2.72;;
10311;SDS011;5201;48.776;9.128;2022-08-25T08:06:06;4.07;;;2.88;;
10311;SDS011;5201;48.776;9.128;2022-08-25T08:08:35;6.60;;;2.63;;
10311;SDS011;5201;48.776;9.128;2022-08-25T08:11:02;6.25;;;3.45;;
10311;SDS011;5201;48.776;9.128;2022-08-25T08:13:28;3.15;;;2.30;;
10311;SDS011;5201;48.776;9.128;2022-08-25T08:15:54;3.30;;;2.67;;
10311;SDS011;5201;48.776;9.128;2022-08-25T08:18:19;3.97;;;2.88;;
10311;SDS011;5201;48.776;9.128;2022-08-25T08:20:46;3.17;;;2.83;;
10311;SDS011;5201;48.776;9.128;2022-08-25T08:23:12;5.32;;;2.50;;
10311;SDS011;5201;48.776;9.128;2022-08-25T08:25:38;3.15;;;2.50;;
10311;SDS011;5201;48.776;9.128;2022-08-25T08:28:04;4.50;;;2.90;;
10311;SDS011;5201;48.776;9.128;2022-08-25T08:30:30;3.10;;;2.22;;
10311;SDS011;5201;48.776;9.128;2022-08-25T08:32:56;4.30;;;2.20;;
10311;SDS011;5201;48.776;9.128;2022-08-25T08:35:21;3.05;;;2.38;;
10311;SDS011;5201;48.776;9.128;2022-08-25T08:37:47;3.50;;;2.15;;
10311;SDS011;5201;48.776;9.128;2022-08-25T08:40:14;3.60;;;2.25;;
10311;SDS011;5201;48.776;9.128;2022-08-25T08:48:12;2.35;;;2.13;;
10311;SDS011;5201;48.776;9.128;2022-08-25T08:50:49;4.43;;;2.13;;
10311;SDS011;5201;48.776;9.128;2022-08-25T08:56:24;2.42;;;2.17;;
10311;SDS011;5201;48.776;9.128;2022-08-25T08:59:27;2.10;;;1.90;;
10311;SDS011;5201;48.776;9.128;2022-08-25T09:01:52;3.38;;;2.13;;
10311;SDS011;5201;48.776;9.128;2022-08-25T09:04:28;2.30;;;2.10;;
10311;SDS011;5201;48.776;9.128;2022-08-25T09:07:03;2.50;;;1.98;;
10311;SDS011;5201;48.776;9.128;2022-08-25T09:09:37;3.03;;;2.30;;
10311;SDS011;5201;48.776;9.128;2022-08-25T09:12:12;4.35;;;2.10;;
10311;SDS011;5201;48.776;9.128;2022-08-25T09:20:07;2.85;;;2.00;;
10311;SDS011;5201;48.776;9.128;2022-08-25T09:25:27;2.10;;;1.90;;
10311;SDS011;5201;48.776;9.128;2022-08-25T09:33:30;2.97;;;1.80;;
10311;SDS011;5201;48.776;9.128;2022-08-25T09:35:57;2.25;;;1.73;;
10311;SDS011;5201;48.776;9.128;2022-08-25T09:38:23;2.35;;;2.10;;
10311;SDS011;5201;48.776;9.128;2022-08-25T09:40:53;2.65;;;2.13;;
10311;SDS011;5201;48.776;9.128;2022-08-25T09:43:28;2.33;;;1.63;;
10311;SDS011;5201;48.776;9.128;2022-08-25T09:51:19;3.00;;;2.20;;
10311;SDS011;5201;48.776;9.128;2022-08-25T09:53:48;2.60;;;1.70;;
10311;SDS011;5201;48.776;9.128;2022-08-25T09:56:18;3.65;;;2.08;;
10311;SDS011;5201;48.776;9.128;2022-08-25T09:58:45;2.20;;;1.90;;
10311;SDS011;5201;48.776;9.128;2022-08-25T10:01:13;2.75;;;2.03;;
10311;SDS011;5201;48.776;9.128;2022-08-25T10:06:24;2.80;;;1.92;;
10311;SDS011;5201;48.776;9.128;2022-08-25T10:09:21;2.08;;;1.90;;
10311;SDS011;5201;48.776;9.128;2022-08-25T10:11:49;2.42;;;1.75;;
10311;SDS011;5201;48.776;9.128;2022-08-25T10:14:18;2.10;;;1.85;;
10311;SDS011;5201;48.776;9.128;2022-08-25T10:16:52;4.85;;;2.13;;
10311;SDS011;5201;48.776;9.128;2022-08-25T10:19:40;3.20;;;1.92;;
10311;SDS011;5201;48.776;9.128;2022-08-25T10:22:25;2.20;;;2.00;;
10311;SDS011;5201;48.776;9.128;2022-08-25T10:24:57;2.45;;;2.00;;
10311;SDS011;5201;48.776;9.128;2022-08-25T10:38:36;2.00;;;1.80;;
10311;SDS011;5201;48.776;9.128;2022-08-25T10:43:39;1.45;;;1.35;;
10311;SDS011;5201;48.776;9.128;2022-08-25T10:46:43;3.47;;;1.00;;
10311;SDS011;5201;48.776;9.128;2022-08-25T10:49:18;6.93;;;1.95;;
10311;SDS011;5201;48.776;9.128;2022-08-25T10:52:02;2.53;;;1.83;;
10311;SDS011;5201;48.776;9.128;2022-08-25T10:54:41;2.53;;;1.70;;
10311;SDS011;5201;48.776;9.128;2022-08-25T10:57:37;2.13;;;1.35;;
10311;SDS011;5201;48.776;9.128;2022-08-25T11:00:21;5.40;;;1.52;;
10311;SDS011;5201;48.776;9.128;2022-08-25T11:10:59;1.65;;;1.55;;
10311;SDS011;5201;48.776;9.128;2022-08-25T11:13:43;2.40;;;1.45;;
10311;SDS011;5201;48.776;9.128;2022-08-25T11:16:17;2.08;;;1.63;;
10311;SDS011;5201;48.776;9.128;2022-08-25T11:18:49;1.67;;;1.50;;
10311;SDS011;5201;48.776;9.128;2022-08-25T11:26:38;2.58;;;1.67;;
10311;SDS011;5201;48.776;9.128;2022-08-25T11:29:12;1.52;;;1.33;;
10311;SDS011;5201;48.776;9.128;2022-08-25T11:31:42;2.67;;;1.70;;
10311;SDS011;5201;48.776;9.128;2022-08-25T11:34:11;3.47;;;1.38;;
10311;SDS011;5201;48.776;9.128;2022-08-25T11:36:47;1.52;;;1.20;;
10311;SDS011;5201;48.776;9.128;2022-08-25T11:45:08;2.20;;;1.52;;
10311;SDS011;5201;48.776;9.128;2022-08-25T11:53:35;1.58;;;1.27;;
10311;SDS011;5201;48.776;9.128;2022-08-25T11:58:40;1.40;;;1.30;;
10311;SDS011;5201;48.776;9.128;2022-08-25T12:09:31;2.78;;;1.52;;
10311;SDS011;5201;48.776;9.128;2022-08-25T12:11:58;1.40;;;1.20;;
10311;SDS011;5201;48.776;9.128;2022-08-25T12:14:44;1.52;;;1.42;;
10311;SDS011;5201;48.776;9.128;2022-08-25T12:17:18;1.30;;;1.20;;
10311;SDS011;5201;48.776;9.128;2022-08-25T12:19:48;1.75;;;1.10;;
10311;SDS011;5201;48.776;9.128;2022-08-25T12:29:52;1.33;;;1.13;;
10311;SDS011;5201;48.776;9.128;2022-08-25T12:32:44;4.22;;;1.25;;
10311;SDS011;5201;48.776;9.128;2022-08-25T12:35:31;1.60;;;1.20;;
10311;SDS011;5201;48.776;9.128;2022-08-25T12:38:26;1.25;;;1.10;;
10311;SDS011;5201;48.776;9.128;2022-08-25T12:41:03;2.13;;;1.50;;
10311;SDS011;5201;48.776;9.128;2022-08-25T12:43:34;1.38;;;1.27;;
10311;SDS011;5201;48.776;9.128;2022-08-25T12:51:53;1.50;;;1.30;;
10311;SDS011;5201;48.776;9.128;2022-08-25T12:54:38;6.32;;;2.00;;
10311;SDS011;5201;48.776;9.128;2022-08-25T12:57:21;4.15;;;1.23;;
10311;SDS011;5201;48.776;9.128;2022-08-25T12:59:53;2.08;;;1.73;;
10311;SDS011;5201;48.776;9.128;2022-08-25T13:02:40;1.40;;;1.27;;
10311;SDS011;5201;48.776;9.128;2022-08-25T13:08:12;1.58;;;1.27;;
10311;SDS011;5201;48.776;9.128;2022-08-25T13:11:08;3.08;;;1.25;;
10311;SDS011;5201;48.776;9.128;2022-08-25T13:16:23;1.10;;;1.00;;
10311;SDS011;5201;48.776;9.128;2022-08-25T13:18:54;2.22;;;1.00;;
10311;SDS011;5201;48.776;9.128;2022-08-25T13:24:07;0.93;;;0.93;;
10311;SDS011;5201;48.776;9.128;2022-08-25T13:26:39;1.00;;;0.85;;
10311;SDS011;5201;48.776;9.128;2022-08-25T13:31:33;1.45;;;1.00;;
10311;SDS011;5201;48.776;9.128;2022-08-25T13:34:03;1.48;;;0.95;;
10311;SDS011;5201;48.776;9.128;2022-08-25T13:36:52;1.38;;;1.23;;
10311;SDS011;5201;48.776;9.128;2022-08-25T13:39:36;1.15;;;1.08;;
10311;SDS011;5201;48.776;9.128;2022-08-25T13:42:03;1.65;;;1.08;;
10311;SDS011;5201;48.776;9.128;2022-08-25T13:44:36;1.65;;;1.30;;
10311;SDS011;5201;48.776;9.128;2022-08-25T13:47:10;1.77;;;1.20;;
10311;SDS011;5201;48.776;9.128;2022-08-25T13:49:42;2.45;;;1.25;;
10311;SDS011;5201;48.776;9.128;2022-08-25T13:52:26;2.00;;;1.10;;
10311;SDS011;5201;48.776;9.128;2022-08-25T13:54:57;1.10;;;1.00;;
10311;SDS011;5201;48.776;9.128;2022-08-25T13:57:25;3.17;;;1.30;;
10311;SDS011;5201;48.776;9.128;2022-08-25T13:59:54;2.58;;;1.30;;
10311;SDS011;5201;48.776;9.128;2022-08-25T14:05:15;2.00;;;1.23;;
10311;SDS011;5201;48.776;9.128;2022-08-25T14:07:53;1.60;;;1.08;;
10311;SDS011;5201;48.776;9.128;2022-08-25T14:10:37;1.25;;;1.13;;
10311;SDS011;5201;48.776;9.128;2022-08-25T14:13:12;2.63;;;1.10;;
10311;SDS011;5201;48.776;9.128;2022-08-25T14:15:50;4.05;;;0.90;;
10311;SDS011;5201;48.776;9.128;2022-08-25T14:18:19;2.47;;;1.10;;
10311;SDS011;5201;48.776;9.128;2022-08-25T14:20:55;1.13;;;0.90;;
10311;SDS011;5201;48.776;9.128;2022-08-25T14:23:22;1.45;;;1.20;;
10311;SDS011;5201;48.776;9.128;2022-08-25T14:25:52;1.45;;;1.35;;
10311;SDS011;5201;48.776;9.128;2022-08-25T14:28:20;1.42;;;0.90;;
10311;SDS011;5201;48.776;9.128;2022-08-25T14:30:49;4.88;;;1.35;;
10311;SDS011;5201;48.776;9.128;2022-08-25T14:33:22;3.17;;;1.17;;
10311;SDS011;5201;48.776;9.128;2022-08-25T14:35:53;2.65;;;1.10;;
10311;SDS011;5201;48.776;9.128;2022-08-25T14:38:21;1.10;;;1.00;;
10311;SDS011;5201;48.776;9.128;2022-08-25T14:40:47;0.88;;;0.88;;
10311;SDS011;5201;48.776;9.128;2022-08-25T14:43:13;1.40;;;1.20;;
10311;SDS011;5201;48.776;9.128;2022-08-25T14:45:40;1.40;;;1.17;;
10311;SDS011;5201;48.776;9.128;2022-08-25T14:48:09;2.65;;;1.10;;
10311;SDS011;5201;48.776;9.128;2022-08-25T14:50:40;1.13;;;1.00;;
10311;SDS011;5201;48.776;9.128;2022-08-25T14:53:06;1.30;;;1.20;;
10311;SDS011;5201;48.776;9.128;2022-08-25T14:55:32;1.90;;;1.08;;
10311;SDS011;5201;48.776;9.128;2022-08-25T14:57:58;2.42;;;1.27;;
10311;SDS011;5201;48.776;9.128;2022-08-25T15:00:23;2.28;;;1.40;;
10311;SDS011;5201;48.776;9.128;2022-08-25T15:02:50;1.20;;;1.20;;
10311;SDS011;5201;48.776;9.128;2022-08-25T15:05:16;3.03;;;1.17;;
10311;SDS011;5201;48.776;9.128;2022-08-25T15:07:46;1.35;;;1.25;;
10311;SDS011;5201;48.776;9.128;2022-08-25T15:10:30;2.50;;;1.20;;
10311;SDS011;5201;48.776;9.128;2022-08-25T15:12:56;1.33;;;1.20;;
10311;SDS011;5201;48.776;9.128;2022-08-25T15:15:22;2.03;;;1.63;;
10311;SDS011;5201;48.776;9.128;2022-08-25T15:17:50;1.70;;;1.45;;
10311;SDS011;5201;48.776;9.128;2022-08-25T15:20:16;2.38;;;1.30;;
10311;SDS011;5201;48.776;9.128;2022-08-25T15:22:43;1.75;;;1.60;;
10311;SDS011;5201;48.776;9.128;2022-08-25T15:25:09;1.92;;;1.10;;
10311;SDS011;5201;48.776;9.128;2022-08-25T15:27:35;2.72;;;2.03;;
10311;SDS011;5201;48.776;9.128;2022-08-25T15:30:01;1.52;;;1.38;;
10311;SDS011;5201;48.776;9.128;2022-08-25T15:32:27;1.23;;;1.13;;
10311;SDS011;5201;48.776;9.128;2022-08-25T15:34:53;2.40;;;1.40;;
10311;SDS011;5201;48.776;9.128;2022-08-25T15:37:19;1.45;;;1.00;;
10311;SDS011;5201;48.776;9.128;2022-08-25T15:39:44;3.30;;;2.42;;
10311;SDS011;5201;48.776;9.128;2022-08-25T15:42:11;3.42;;;2.25;;
10311;SDS011;5201;48.776;9.128;2022-08-25T15:44:38;1.77;;;1.45;;
10311;SDS011;5201;48.776;9.128;2022-08-25T15:47:04;2.42;;;1.67;;
10311;SDS011;5201;48.776;9.128;2022-08-25T15:49:29;2.13;;;1.73;;
10311;SDS011;5201;48.776;9.128;2022-08-25T15:51:55;4.78;;;1.77;;
10311;SDS011;5201;48.776;9.128;2022-08-25T15:54:21;1.88;;;1.50;;
10311;SDS011;5201;48.776;9.128;2022-08-25T15:56:48;2.08;;;1.45;;
10311;SDS011;5201;48.776;9.128;2022-08-25T15:59:14;3.53;;;1.40;;
10311;SDS011;5201;48.776;9.128;2022-08-25T16:01:40;1.48;;;1.38;;
10311;SDS011;5201;48.776;9.128;2022-08-25T16:04:08;1.95;;;1.30;;
10311;SDS011;5201;48.776;9.128;2022-08-25T16:06:34;1.40;;;1.10;;
10311;SDS011;5201;48.776;9.128;2022-08-25T16:09:00;2.88;;;1.58;;
10311;SDS011;5201;48.776;9.128;2022-08-25T16:11:27;4.10;;;1.70;;
10311;SDS011;5201;48.776;9.128;2022-08-25T16:13:55;2.10;;;1.42;;
10311;SDS011;5201;48.776;9.128;2022-08-25T16:16:22;2.35;;;1.50;;
10311;SDS011;5201;48.776;9.128;2022-08-25T16:18:50;3.13;;;1.35;;
10311;SDS011;5201;48.776;9.128;2022-08-25T16:21:18;3.42;;;1.83;;
10311;SDS011;5201;48.776;9.128;2022-08-25T16:23:47;2.05;;;1.40;;
10311;SDS011;5201;48.776;9.128;2022-08-25T16:26:13;4.45;;;2.00;;
10311;SDS011;5201;48.776;9.128;2022-08-25T16:28:40;2.47;;;1.52;;
10311;SDS011;5201;48.776;9.128;2022-08-25T16:31:07;1.48;;;1.27;;
10311;SDS011;5201;48.776;9.128;2022-08-25T16:33:34;7.85;;;1.50;;
10311;SDS011;5201;48.776;9.128;2022-08-25T16:38:33;1.25;;;1.10;;
10311;SDS011;5201;48.776;9.128;2022-08-25T16:40:59;1.63;;;1.00;;
10311;SDS011;5201;48.776;9.128;2022-08-25T16:43:28;1.80;;;1.52;;
10311;SDS011;5201;48.776;9.128;2022-08-25T16:45:58;1.38;;;1.27;;
10311;SDS011;5201;48.776;9.128;2022-08-25T16:48:26;1.38;;;1.17;;
10311;SDS011;5201;48.776;9.128;2022-08-25T16:50:52;1.60;;;1.50;;
10311;SDS011;5201;48.776;9.128;2022-08-25T16:53:17;1.48;;;1.20;;
10311;SDS011;5201;48.776;9.128;2022-08-25T16:56:02;2.33;;;1.15;;
10311;SDS011;5201;48.776;9.128;2022-08-25T16:58:29;1.48;;;0.93;;
10311;SDS011;5201;48.776;9.128;2022-08-25T17:01:01;1.35;;;1.10;;
10311;SDS011;5201;48.776;9.128;2022-08-25T17:03:28;3.78;;;1.35;;
10311;SDS011;5201;48.776;9.128;2022-08-25T17:05:54;3.92;;;1.50;;
10311;SDS011;5201;48.776;9.128;2022-08-25T17:08:22;1.40;;;1.20;;